sensor_id;sensor_type;location;lat;lon;timestamp;pressure;altitude;pressure_sealevel;temperature;humidity
48244;BME280;34053;51.088;6.572;2022-07-25T00:02:26;100552.66;;;26.04;44.37
48244;BME280;34053;51.088;6.572;2022-07-25T00:04:57;100550.25;;;26.01;44.08
48244;BME280;34053;51.088;6.572;2022-07-25T00:07:28;100535.44;;;25.97;44.34
48244;BME280;34053;51.088;6.572;2022-07-25T00:10:01;100538.41;;;25.94;44.51
48244;BME280;34053;51.088;6.572;2022-07-25T00:12:36;100530.63;;;25.91;44.37
48244;BME280;34053;51.088;6.572;2022-07-25T00:15:08;100529.06;;;25.88;44.65
48244;BME280;34053;51.088;6.572;2022-07-25T00:17:39;100528.53;;;25.85;44.81
48244;BME280;34053;51.088;6.572;2022-07-25T00:20:10;100528.84;;;25.82;44.97
48244;BME280;34053;51.088;6.572;2022-07-25T00:22:41;100529.13;;;25.79;44.58
48244;BME280;34053;51.088;6.572;2022-07-25T00:25:11;100526.72;;;25.75;45.02
48244;BME280;34053;51.088;6.572;2022-07-25T00:27:42;100523.63;;;25.70;45.07
48244;BME280;34053;51.088;6.572;2022-07-25T00:30:13;100520.22;;;25.68;44.77
48244;BME280;34053;51.088;6.572;2022-07-25T00:32:43;100518.84;;;25.64;45.32
48244;BME280;34053;51.088;6.572;2022-07-25T00:35:14;100520.97;;;25.60;45.40
48244;BME280;34053;51.088;6.572;2022-07-25T00:37:47;100511.34;;;25.58;44.92
48244;BME280;34053;51.088;6.572;2022-07-25T00:40:21;100515.31;;;25.54;45.46
48244;BME280;34053;51.088;6.572;2022-07-25T00:42:52;100508.53;;;25.50;45.80
48244;BME280;34053;51.088;6.572;2022-07-25T00:45:22;100509.53;;;25.49;45.62
48244;BME280;34053;51.088;6.572;2022-07-25T00:47:53;100508.13;;;25.44;45.82
48244;BME280;34053;51.088;6.572;2022-07-25T00:50:24;100511.09;;;25.41;45.29
48244;BME280;34053;51.088;6.572;2022-07-25T00:52:57;100508.66;;;25.38;45.73
48244;BME280;34053;51.088;6.572;2022-07-25T00:55:28;100506.25;;;25.35;45.34
48244;BME280;34053;51.088;6.572;2022-07-25T00:57:59;100505.69;;;25.32;45.55
48244;BME280;34053;51.088;6.572;2022-07-25T01:00:32;100511.50;;;25.27;45.53
48244;BME280;34053;51.088;6.572;2022-07-25T01:03:11;100513.47;;;25.25;45.79
48244;BME280;34053;51.088;6.572;2022-07-25T01:05:42;100511.34;;;25.19;45.73
48244;BME280;34053;51.088;6.572;2022-07-25T01:08:13;100508.97;;;25.16;45.82
48244;BME280;34053;51.088;6.572;2022-07-25T01:10:45;100514.63;;;25.12;45.86
48244;BME280;34053;51.088;6.572;2022-07-25T01:13:16;100512.09;;;25.11;45.63
48244;BME280;34053;51.088;6.572;2022-07-25T01:15:46;100512.50;;;25.06;46.22
48244;BME280;34053;51.088;6.572;2022-07-25T01:18:17;100504.47;;;25.06;45.81
48244;BME280;34053;51.088;6.572;2022-07-25T01:20:47;100502.19;;;25.02;45.91
48244;BME280;34053;51.088;6.572;2022-07-25T01:23:18;100500.75;;;24.97;46.25
48244;BME280;34053;51.088;6.572;2022-07-25T01:25:54;100502.78;;;24.95;46.09
48244;BME280;34053;51.088;6.572;2022-07-25T01:28:24;100492.44;;;24.91;45.89
48244;BME280;34053;51.088;6.572;2022-07-25T01:30:55;100488.06;;;24.90;46.36
48244;BME280;34053;51.088;6.572;2022-07-25T01:33:26;100484.81;;;24.86;46.19
48244;BME280;34053;51.088;6.572;2022-07-25T01:35:56;100487.78;;;24.83;45.79
48244;BME280;34053;51.088;6.572;2022-07-25T01:38:27;100488.91;;;24.80;46.11
48244;BME280;34053;51.088;6.572;2022-07-25T01:40:58;100484.69;;;24.78;45.91
48244;BME280;34053;51.088;6.572;2022-07-25T01:43:28;100486.66;;;24.76;45.93
48244;BME280;34053;51.088;6.572;2022-07-25T01:46:02;100472.94;;;24.69;46.38
48244;BME280;34053;51.088;6.572;2022-07-25T01:48:35;100484.66;;;24.68;46.32
48244;BME280;34053;51.088;6.572;2022-07-25T01:51:06;100489.41;;;24.64;46.67
48244;BME280;34053;51.088;6.572;2022-07-25T01:53:39;100476.16;;;24.63;46.80
48244;BME280;34053;51.088;6.572;2022-07-25T01:56:10;100475.59;;;24.59;46.61
48244;BME280;34053;51.088;6.572;2022-07-25T01:58:41;100480.22;;;24.57;46.53
48244;BME280;34053;51.088;6.572;2022-07-25T02:01:11;100471.75;;;24.52;46.56
48244;BME280;34053;51.088;6.572;2022-07-25T02:03:42;100468.50;;;24.48;46.68
48244;BME280;34053;51.088;6.572;2022-07-25T02:06:16;100464.13;;;24.47;46.56
48244;BME280;34053;51.088;6.572;2022-07-25T02:08:50;100460.00;;;24.43;46.68
48244;BME280;34053;51.088;6.572;2022-07-25T02:11:21;100457.47;;;24.42;46.69
48244;BME280;34053;51.088;6.572;2022-07-25T02:13:52;100459.59;;;24.38;46.43
48244;BME280;34053;51.088;6.572;2022-07-25T02:16:22;100451.69;;;24.36;46.67
48244;BME280;34053;51.088;6.572;2022-07-25T02:18:53;100450.97;;;24.34;46.74
48244;BME280;34053;51.088;6.572;2022-07-25T02:21:30;100443.34;;;24.30;46.97
48244;BME280;34053;51.088;6.572;2022-07-25T02:24:03;100445.19;;;24.29;46.91
48244;BME280;34053;51.088;6.572;2022-07-25T02:26:43;100448.84;;;24.28;47.01
48244;BME280;34053;51.088;6.572;2022-07-25T02:29:16;100449.28;;;24.24;46.97
48244;BME280;34053;51.088;6.572;2022-07-25T02:31:47;100443.34;;;24.20;47.23
48244;BME280;34053;51.088;6.572;2022-07-25T02:34:18;100440.78;;;24.18;46.99
48244;BME280;34053;51.088;6.572;2022-07-25T02:36:49;100430.34;;;24.15;47.31
48244;BME280;34053;51.088;6.572;2022-07-25T02:39:20;100435.00;;;24.13;47.33
48244;BME280;34053;51.088;6.572;2022-07-25T02:41:51;100428.19;;;24.09;47.33
48244;BME280;34053;51.088;6.572;2022-07-25T02:44:21;100430.03;;;24.09;47.14
48244;BME280;34053;51.088;6.572;2022-07-25T02:46:52;100428.75;;;24.03;47.49
48244;BME280;34053;51.088;6.572;2022-07-25T02:49:22;100427.03;;;24.02;47.29
48244;BME280;34053;51.088;6.572;2022-07-25T02:51:53;100421.00;;;24.00;47.70
48244;BME280;34053;51.088;6.572;2022-07-25T02:54:24;100420.28;;;23.98;47.60
48244;BME280;34053;51.088;6.572;2022-07-25T02:56:57;100421.53;;;23.94;47.30
48244;BME280;34053;51.088;6.572;2022-07-25T02:59:30;100408.25;;;23.92;47.07
48244;BME280;34053;51.088;6.572;2022-07-25T03:02:04;100410.34;;;23.88;47.65
48244;BME280;34053;51.088;6.572;2022-07-25T03:08:04;100410.88;;;23.82;47.34
48244;BME280;34053;51.088;6.572;2022-07-25T03:11:12;100410.16;;;23.80;47.45
48244;BME280;34053;51.088;6.572;2022-07-25T03:14:54;100402.53;;;23.76;47.48
48244;BME280;34053;51.088;6.572;2022-07-25T03:17:28;100396.59;;;23.72;47.29
48244;BME280;34053;51.088;6.572;2022-07-25T03:19:58;100397.59;;;23.71;47.46
48244;BME280;34053;51.088;6.572;2022-07-25T03:22:29;100386.16;;;23.69;47.76
48244;BME280;34053;51.088;6.572;2022-07-25T03:25:00;100390.09;;;23.65;47.42
48244;BME280;34053;51.088;6.572;2022-07-25T03:27:41;100394.72;;;23.63;47.28
48244;BME280;34053;51.088;6.572;2022-07-25T03:30:14;100393.19;;;23.60;47.80
48244;BME280;34053;51.088;6.572;2022-07-25T03:32:44;100383.59;;;23.57;47.96
48244;BME280;34053;51.088;6.572;2022-07-25T03:35:15;100388.94;;;23.57;47.57
48244;BME280;34053;51.088;6.572;2022-07-25T03:37:46;100385.69;;;23.54;47.77
48244;BME280;34053;51.088;6.572;2022-07-25T03:40:17;100380.59;;;23.51;47.90
48244;BME280;34053;51.088;6.572;2022-07-25T03:42:50;100371.00;;;23.48;47.87
48244;BME280;34053;51.088;6.572;2022-07-25T03:45:21;100377.34;;;23.47;47.99
48244;BME280;34053;51.088;6.572;2022-07-25T03:47:51;100373.94;;;23.45;47.73
48244;BME280;34053;51.088;6.572;2022-07-25T03:50:22;100376.91;;;23.42;47.96
48244;BME280;34053;51.088;6.572;2022-07-25T03:52:53;100381.38;;;23.41;47.96
48244;BME280;34053;51.088;6.572;2022-07-25T03:55:23;100367.44;;;23.38;47.71
48244;BME280;34053;51.088;6.572;2022-07-25T03:57:55;100375.72;;;23.35;47.91
48244;BME280;34053;51.088;6.572;2022-07-25T04:00:25;100373.03;;;23.35;48.04
48244;BME280;34053;51.088;6.572;2022-07-25T04:02:56;100374.03;;;23.34;48.10
48244;BME280;34053;51.088;6.572;2022-07-25T04:05:27;100364.56;;;23.30;48.15
48244;BME280;34053;51.088;6.572;2022-07-25T04:08:01;100364.56;;;23.30;47.99
48244;BME280;34053;51.088;6.572;2022-07-25T04:10:39;100361.31;;;23.26;48.23
48244;BME280;34053;51.088;6.572;2022-07-25T04:13:11;100359.75;;;23.23;48.07
48244;BME280;34053;51.088;6.572;2022-07-25T04:15:42;100357.06;;;23.23;48.25
48244;BME280;34053;51.088;6.572;2022-07-25T04:18:13;100356.34;;;23.21;48.40
48244;BME280;34053;51.088;6.572;2022-07-25T04:20:43;100362.69;;;23.20;47.95
48244;BME280;34053;51.088;6.572;2022-07-25T04:23:14;100351.25;;;23.18;48.25
48244;BME280;34053;51.088;6.572;2022-07-25T04:25:46;100361.97;;;23.18;48.22
48244;BME280;34053;51.088;6.572;2022-07-25T04:28:19;100356.84;;;23.15;48.68
48244;BME280;34053;51.088;6.572;2022-07-25T04:30:50;100354.19;;;23.15;48.60
48244;BME280;34053;51.088;6.572;2022-07-25T04:33:21;100345.44;;;23.13;48.46
48244;BME280;34053;51.088;6.572;2022-07-25T04:35:52;100343.63;;;23.14;48.52
48244;BME280;34053;51.088;6.572;2022-07-25T04:38:23;100331.34;;;23.11;48.61
48244;BME280;34053;51.088;6.572;2022-07-25T04:40:54;100331.22;;;23.13;48.52
48244;BME280;34053;51.088;6.572;2022-07-25T04:43:24;100336.56;;;23.13;48.48
48244;BME280;34053;51.088;6.572;2022-07-25T04:45:56;100324.16;;;23.11;48.66
48244;BME280;34053;51.088;6.572;2022-07-25T04:48:29;100327.69;;;23.12;48.86
48244;BME280;34053;51.088;6.572;2022-07-25T04:51:03;100325.72;;;23.14;48.79
48244;BME280;34053;51.088;6.572;2022-07-25T04:53:41;100324.03;;;23.13;48.65
48244;BME280;34053;51.088;6.572;2022-07-25T04:56:12;100311.50;;;23.14;48.84
48244;BME280;34053;51.088;6.572;2022-07-25T04:58:46;100311.50;;;23.14;48.77
48244;BME280;34053;51.088;6.572;2022-07-25T05:01:16;100311.50;;;23.14;48.93
48244;BME280;34053;51.088;6.572;2022-07-25T05:03:47;100311.38;;;23.15;49.00
48244;BME280;34053;51.088;6.572;2022-07-25T05:06:18;100304.19;;;23.16;49.16
48244;BME280;34053;51.088;6.572;2022-07-25T05:08:49;100301.38;;;23.17;49.17
48244;BME280;34053;51.088;6.572;2022-07-25T05:11:19;100305.03;;;23.16;49.68
48244;BME280;34053;51.088;6.572;2022-07-25T05:13:50;100305.66;;;23.20;49.57
48244;BME280;34053;51.088;6.572;2022-07-25T05:16:21;100302.84;;;23.21;49.44
48244;BME280;34053;51.088;6.572;2022-07-25T05:18:51;100302.56;;;23.24;49.54
48244;BME280;34053;51.088;6.572;2022-07-25T05:21:22;100301.44;;;23.27;49.71
48244;BME280;34053;51.088;6.572;2022-07-25T05:23:55;100299.50;;;23.29;49.70
48244;BME280;34053;51.088;6.572;2022-07-25T05:26:26;100302.03;;;23.31;49.71
48244;BME280;34053;51.088;6.572;2022-07-25T05:28:56;100312.47;;;23.34;49.74
48244;BME280;34053;51.088;6.572;2022-07-25T05:31:27;100298.94;;;23.35;49.90
48244;BME280;34053;51.088;6.572;2022-07-25T05:33:58;100304.03;;;23.38;49.63
48244;BME280;34053;51.088;6.572;2022-07-25T05:36:28;100304.72;;;23.40;49.95
48244;BME280;34053;51.088;6.572;2022-07-25T05:38:59;100302.78;;;23.42;50.49
48244;BME280;34053;51.088;6.572;2022-07-25T05:41:30;100300.81;;;23.45;50.08
48244;BME280;34053;51.088;6.572;2022-07-25T05:44:01;100299.84;;;23.46;50.28
48244;BME280;34053;51.088;6.572;2022-07-25T05:46:32;100298.72;;;23.48;49.88
48244;BME280;34053;51.088;6.572;2022-07-25T05:49:03;100296.88;;;23.49;49.89
48244;BME280;34053;51.088;6.572;2022-07-25T05:51:33;100291.41;;;23.50;49.78
48244;BME280;34053;51.088;6.572;2022-07-25T05:54:04;100294.78;;;23.52;50.10
48244;BME280;34053;51.088;6.572;2022-07-25T05:56:35;100290.84;;;23.56;49.90
48244;BME280;34053;51.088;6.572;2022-07-25T05:59:08;100286.22;;;23.58;50.04
48244;BME280;34053;51.088;6.572;2022-07-25T06:01:39;100283.97;;;23.64;49.92
48244;BME280;34053;51.088;6.572;2022-07-25T06:04:10;100282.97;;;23.65;50.10
48244;BME280;34053;51.088;6.572;2022-07-25T06:06:41;100280.72;;;23.70;49.72
48244;BME280;34053;51.088;6.572;2022-07-25T06:09:11;100281.03;;;23.77;49.71
48244;BME280;34053;51.088;6.572;2022-07-25T06:11:46;100278.91;;;23.80;49.68
48244;BME280;34053;51.088;6.572;2022-07-25T06:14:26;100285.81;;;23.83;50.17
48244;BME280;34053;51.088;6.572;2022-07-25T06:16:59;100279.06;;;23.88;49.54
48244;BME280;34053;51.088;6.572;2022-07-25T06:19:29;100284.00;;;23.93;49.83
48244;BME280;34053;51.088;6.572;2022-07-25T06:22:00;100289.38;;;23.93;50.02
48244;BME280;34053;51.088;6.572;2022-07-25T06:24:34;100279.81;;;24.00;50.68
48244;BME280;34053;51.088;6.572;2022-07-25T06:27:14;100278.69;;;24.03;50.03
48244;BME280;34053;51.088;6.572;2022-07-25T06:29:45;100284.19;;;24.11;49.81
48244;BME280;34053;51.088;6.572;2022-07-25T06:32:15;100280.25;;;24.15;50.27
48244;BME280;34053;51.088;6.572;2022-07-25T06:34:46;100280.25;;;24.15;49.87
48244;BME280;34053;51.088;6.572;2022-07-25T06:37:16;100289.56;;;24.21;49.95
48244;BME280;34053;51.088;6.572;2022-07-25T06:39:47;100274.06;;;24.25;49.72
48244;BME280;34053;51.088;6.572;2022-07-25T06:42:20;100277.72;;;24.33;49.44
48244;BME280;34053;51.088;6.572;2022-07-25T06:44:54;100276.88;;;24.33;49.83
48244;BME280;34053;51.088;6.572;2022-07-25T06:47:24;100276.28;;;24.39;49.24
48244;BME280;34053;51.088;6.572;2022-07-25T06:49:55;100274.03;;;24.44;49.29
48244;BME280;34053;51.088;6.572;2022-07-25T06:52:26;100274.03;;;24.44;49.59
48244;BME280;34053;51.088;6.572;2022-07-25T06:54:57;100263.03;;;24.47;49.06
48244;BME280;34053;51.088;6.572;2022-07-25T06:57:27;100269.34;;;24.56;49.29
48244;BME280;34053;51.088;6.572;2022-07-25T06:59:58;100265.41;;;24.60;49.11
48244;BME280;34053;51.088;6.572;2022-07-25T07:02:29;100280.06;;;24.66;49.06
48244;BME280;34053;51.088;6.572;2022-07-25T07:04:59;100280.06;;;24.66;49.03
48244;BME280;34053;51.088;6.572;2022-07-25T07:07:30;100270.78;;;24.70;48.76
48244;BME280;34053;51.088;6.572;2022-07-25T07:10:04;100259.59;;;24.75;49.19
48244;BME280;34053;51.088;6.572;2022-07-25T07:12:35;100255.50;;;24.80;48.92
48244;BME280;34053;51.088;6.572;2022-07-25T07:15:09;100263.66;;;24.89;48.71
48244;BME280;34053;51.088;6.572;2022-07-25T07:17:43;100261.97;;;24.88;49.02
48244;BME280;34053;51.088;6.572;2022-07-25T07:20:15;100265.47;;;24.98;48.57
48244;BME280;34053;51.088;6.572;2022-07-25T07:22:49;100267.28;;;25.07;48.78
48244;BME280;34053;51.088;6.572;2022-07-25T07:25:20;100275.34;;;25.07;49.07
48244;BME280;34053;51.088;6.572;2022-07-25T07:27:53;100272.00;;;25.23;48.59
48244;BME280;34053;51.088;6.572;2022-07-25T07:30:23;100269.16;;;25.25;48.69
48244;BME280;34053;51.088;6.572;2022-07-25T07:32:54;100271.00;;;25.24;48.58
48244;BME280;34053;51.088;6.572;2022-07-25T07:35:24;100278.06;;;25.25;48.52
48244;BME280;34053;51.088;6.572;2022-07-25T07:37:55;100274.94;;;25.30;48.72
48244;BME280;34053;51.088;6.572;2022-07-25T07:40:26;100275.78;;;25.30;48.00
48244;BME280;34053;51.088;6.572;2022-07-25T07:42:59;100277.44;;;25.41;48.11
48244;BME280;34053;51.088;6.572;2022-07-25T07:45:42;100276.47;;;25.42;48.36
48244;BME280;34053;51.088;6.572;2022-07-25T07:48:12;100285.06;;;25.46;48.48
48244;BME280;34053;51.088;6.572;2022-07-25T07:50:51;100283.94;;;25.49;48.64
48244;BME280;34053;51.088;6.572;2022-07-25T07:53:21;100271.88;;;25.53;49.00
48244;BME280;34053;51.088;6.572;2022-07-25T07:55:52;100282.03;;;25.59;48.39
48244;BME280;34053;51.088;6.572;2022-07-25T07:58:24;100274.50;;;25.63;47.93
48244;BME280;34053;51.088;6.572;2022-07-25T08:00:55;100282.44;;;25.64;47.13
48244;BME280;34053;51.088;6.572;2022-07-25T08:03:25;100290.88;;;25.69;47.64
48244;BME280;34053;51.088;6.572;2022-07-25T08:05:57;100284.06;;;25.75;47.23
48244;BME280;34053;51.088;6.572;2022-07-25T08:08:28;100288.97;;;25.80;46.78
48244;BME280;34053;51.088;6.572;2022-07-25T08:10:59;100295.97;;;25.72;45.78
48244;BME280;34053;51.088;6.572;2022-07-25T08:13:30;100293.81;;;25.76;46.09
48244;BME280;34053;51.088;6.572;2022-07-25T08:16:13;100290.69;;;25.81;46.24
48244;BME280;34053;51.088;6.572;2022-07-25T08:18:44;100283.53;;;25.71;45.73
48244;BME280;34053;51.088;6.572;2022-07-25T08:21:15;100284.22;;;25.73;45.33
48244;BME280;34053;51.088;6.572;2022-07-25T08:23:45;100285.59;;;25.77;45.83
48244;BME280;34053;51.088;6.572;2022-07-25T08:26:17;100282.91;;;25.77;45.81
48244;BME280;34053;51.088;6.572;2022-07-25T08:28:48;100284.44;;;25.80;45.56
48244;BME280;34053;51.088;6.572;2022-07-25T08:31:18;100289.59;;;25.73;45.15
48244;BME280;34053;51.088;6.572;2022-07-25T08:33:52;100300.56;;;25.80;45.30
48244;BME280;34053;51.088;6.572;2022-07-25T08:36:23;100295.63;;;25.75;45.41
48244;BME280;34053;51.088;6.572;2022-07-25T08:38:54;100295.25;;;25.70;45.30
48244;BME280;34053;51.088;6.572;2022-07-25T08:41:25;100292.56;;;25.70;45.45
48244;BME280;34053;51.088;6.572;2022-07-25T08:43:55;100281.72;;;25.62;45.69
48244;BME280;34053;51.088;6.572;2022-07-25T08:46:27;100291.75;;;25.70;45.59
48244;BME280;34053;51.088;6.572;2022-07-25T08:48:59;100291.16;;;25.66;45.72
48244;BME280;34053;51.088;6.572;2022-07-25T08:51:31;100293.28;;;25.72;46.11
48244;BME280;34053;51.088;6.572;2022-07-25T08:54:03;100293.81;;;25.76;45.75
48244;BME280;34053;51.088;6.572;2022-07-25T08:56:34;100290.97;;;25.77;45.78
48244;BME280;34053;51.088;6.572;2022-07-25T08:59:04;100303.94;;;25.82;45.79
48244;BME280;34053;51.088;6.572;2022-07-25T09:01:41;100306.25;;;25.77;46.01
48244;BME280;34053;51.088;6.572;2022-07-25T09:04:12;100303.78;;;25.84;46.24
48244;BME280;34053;51.088;6.572;2022-07-25T09:06:49;100302.00;;;25.74;46.43
48244;BME280;34053;51.088;6.572;2022-07-25T09:09:31;100302.88;;;25.75;46.43
48244;BME280;34053;51.088;6.572;2022-07-25T09:12:12;100303.78;;;25.84;46.24
48244;BME280;34053;51.088;6.572;2022-07-25T09:14:45;100311.03;;;26.01;45.37
48244;BME280;34053;51.088;6.572;2022-07-25T09:17:18;100312.94;;;25.91;45.33
48244;BME280;34053;51.088;6.572;2022-07-25T09:19:54;100312.72;;;26.02;45.77
48244;BME280;34053;51.088;6.572;2022-07-25T09:22:25;100314.03;;;25.98;46.09
48244;BME280;34053;51.088;6.572;2022-07-25T09:24:59;100321.16;;;25.89;45.48
48244;BME280;34053;51.088;6.572;2022-07-25T09:27:33;100326.13;;;26.12;44.96
48244;BME280;34053;51.088;6.572;2022-07-25T09:30:14;100337.03;;;26.11;45.33
48244;BME280;34053;51.088;6.572;2022-07-25T09:32:57;100327.97;;;26.12;45.44
48244;BME280;34053;51.088;6.572;2022-07-25T09:35:32;100335.94;;;26.03;45.73
48244;BME280;34053;51.088;6.572;2022-07-25T09:38:12;100331.91;;;26.07;45.00
48244;BME280;34053;51.088;6.572;2022-07-25T09:41:00;100341.00;;;26.06;45.11
48244;BME280;34053;51.088;6.572;2022-07-25T09:43:37;100351.47;;;26.10;44.83
48244;BME280;34053;51.088;6.572;2022-07-25T09:46:11;100358.25;;;26.14;44.85
48244;BME280;34053;51.088;6.572;2022-07-25T09:48:56;100352.34;;;26.00;44.17
48244;BME280;34053;51.088;6.572;2022-07-25T09:51:27;100356.84;;;26.10;44.71
48244;BME280;34053;51.088;6.572;2022-07-25T09:53:58;100362.16;;;25.91;43.79
48244;BME280;34053;51.088;6.572;2022-07-25T09:56:29;100367.09;;;25.96;43.88
48244;BME280;34053;51.088;6.572;2022-07-25T09:59:00;100371.47;;;25.97;44.05
48244;BME280;34053;51.088;6.572;2022-07-25T10:01:38;100384.72;;;25.81;43.91
48244;BME280;34053;51.088;6.572;2022-07-25T10:04:21;100373.06;;;25.90;44.23
48244;BME280;34053;51.088;6.572;2022-07-25T10:09:45;100364.84;;;25.91;43.21
48244;BME280;34053;51.088;6.572;2022-07-25T10:12:21;100361.81;;;25.76;44.03
48244;BME280;34053;51.088;6.572;2022-07-25T10:17:36;100353.06;;;25.74;43.49
48244;BME280;34053;51.088;6.572;2022-07-25T10:20:09;100340.38;;;25.67;43.37
48244;BME280;34053;51.088;6.572;2022-07-25T10:22:41;100329.09;;;25.63;43.62
48244;BME280;34053;51.088;6.572;2022-07-25T10:25:17;100341.53;;;25.64;44.03
48244;BME280;34053;51.088;6.572;2022-07-25T10:27:50;100327.88;;;25.75;43.65
48244;BME280;34053;51.088;6.572;2022-07-25T10:30:24;100326.16;;;25.84;43.26
48244;BME280;34053;51.088;6.572;2022-07-25T10:33:01;100322.47;;;25.85;42.30
48244;BME280;34053;51.088;6.572;2022-07-25T10:35:33;100334.75;;;25.88;42.87
48244;BME280;34053;51.088;6.572;2022-07-25T10:38:04;100333.22;;;25.85;42.36
48244;BME280;34053;51.088;6.572;2022-07-25T10:40:43;100336.03;;;25.84;42.56
48244;BME280;34053;51.088;6.572;2022-07-25T10:43:20;100356.53;;;25.85;41.28
48244;BME280;34053;51.088;6.572;2022-07-25T10:45:55;100348.47;;;25.85;41.26
48244;BME280;34053;51.088;6.572;2022-07-25T10:48:30;100347.03;;;25.90;41.00
48244;BME280;34053;51.088;6.572;2022-07-25T10:51:08;100353.03;;;26.02;41.96
48244;BME280;34053;51.088;6.572;2022-07-25T10:56:25;100361.28;;;26.01;40.95
48244;BME280;34053;51.088;6.572;2022-07-25T10:59:00;100364.06;;;26.09;41.44
48244;BME280;34053;51.088;6.572;2022-07-25T11:01:38;100360.78;;;26.15;41.41
48244;BME280;34053;51.088;6.572;2022-07-25T11:04:15;100361.84;;;26.22;41.27
48244;BME280;34053;51.088;6.572;2022-07-25T11:06:45;100346.50;;;26.33;41.54
48244;BME280;34053;51.088;6.572;2022-07-25T11:09:24;100350.50;;;26.47;41.54
48244;BME280;34053;51.088;6.572;2022-07-25T11:11:57;100350.41;;;26.38;41.11
48244;BME280;34053;51.088;6.572;2022-07-25T11:14:36;100357.63;;;26.38;40.83
48244;BME280;34053;51.088;6.572;2022-07-25T11:17:14;100362.63;;;26.51;41.71
48244;BME280;34053;51.088;6.572;2022-07-25T11:22:31;100360.69;;;26.61;41.42
48244;BME280;34053;51.088;6.572;2022-07-25T11:25:12;100368.41;;;26.56;41.25
48244;BME280;34053;51.088;6.572;2022-07-25T11:27:49;100368.31;;;26.48;40.92
48244;BME280;34053;51.088;6.572;2022-07-25T11:30:25;100363.09;;;26.64;41.45
48244;BME280;34053;51.088;6.572;2022-07-25T11:33:01;100363.28;;;26.71;41.09
48244;BME280;34053;51.088;6.572;2022-07-25T11:35:32;100376.47;;;26.56;41.08
48244;BME280;34053;51.088;6.572;2022-07-25T11:38:03;100364.09;;;26.63;41.90
48244;BME280;34053;51.088;6.572;2022-07-25T11:40:41;100367.59;;;26.64;41.43
48244;BME280;34053;51.088;6.572;2022-07-25T11:43:22;100365.78;;;26.64;41.69
48244;BME280;34053;51.088;6.572;2022-07-25T11:46:01;100370.91;;;26.76;41.86
48244;BME280;34053;51.088;6.572;2022-07-25T11:48:39;100367.84;;;26.70;41.96
48244;BME280;34053;51.088;6.572;2022-07-25T11:51:15;100363.91;;;26.83;42.71
48244;BME280;34053;51.088;6.572;2022-07-25T11:53:48;100360.22;;;26.84;42.44
48244;BME280;34053;51.088;6.572;2022-07-25T11:56:22;100367.66;;;26.90;42.42
48244;BME280;34053;51.088;6.572;2022-07-25T11:59:01;100363.84;;;26.93;42.85
48244;BME280;34053;51.088;6.572;2022-07-25T12:01:35;100367.53;;;26.92;42.09
48244;BME280;34053;51.088;6.572;2022-07-25T12:04:15;100369.06;;;26.94;42.90
48244;BME280;34053;51.088;6.572;2022-07-25T12:06:47;100366.78;;;27.08;43.11
48244;BME280;34053;51.088;6.572;2022-07-25T12:09:20;100373.13;;;27.25;42.55
48244;BME280;34053;51.088;6.572;2022-07-25T12:12:02;100379.03;;;27.28;42.60
48244;BME280;34053;51.088;6.572;2022-07-25T12:14:41;100384.09;;;27.31;42.52
48244;BME280;34053;51.088;6.572;2022-07-25T12:17:12;100385.31;;;27.37;42.21
48244;BME280;34053;51.088;6.572;2022-07-25T12:19:46;100378.09;;;27.38;42.22
48244;BME280;34053;51.088;6.572;2022-07-25T12:22:19;100388.13;;;27.27;42.78
48244;BME280;34053;51.088;6.572;2022-07-25T12:24:50;100387.34;;;27.35;43.27
48244;BME280;34053;51.088;6.572;2022-07-25T12:27:25;100371.25;;;27.43;43.06
48244;BME280;34053;51.088;6.572;2022-07-25T12:30:13;100375.91;;;27.68;42.83
48244;BME280;34053;51.088;6.572;2022-07-25T12:32:46;100394.44;;;27.71;42.51
48244;BME280;34053;51.088;6.572;2022-07-25T12:35:16;100393.28;;;27.73;43.02
48244;BME280;34053;51.088;6.572;2022-07-25T12:37:47;100388.75;;;27.82;43.02
48244;BME280;34053;51.088;6.572;2022-07-25T12:40:18;100387.09;;;27.89;43.36
48244;BME280;34053;51.088;6.572;2022-07-25T12:42:50;100387.78;;;28.00;43.00
48244;BME280;34053;51.088;6.572;2022-07-25T12:45:20;100389.06;;;28.14;42.85
48244;BME280;34053;51.088;6.572;2022-07-25T12:47:52;100393.97;;;28.18;41.99
48244;BME280;34053;51.088;6.572;2022-07-25T12:50:25;100389.25;;;28.20;42.06
48244;BME280;34053;51.088;6.572;2022-07-25T12:52:56;100380.31;;;28.28;42.23
48244;BME280;34053;51.088;6.572;2022-07-25T12:55:26;100391.31;;;28.43;41.91
48244;BME280;34053;51.088;6.572;2022-07-25T12:57:57;100396.03;;;28.49;42.47
48244;BME280;34053;51.088;6.572;2022-07-25T13:00:27;100397.91;;;28.57;41.92
48244;BME280;34053;51.088;6.572;2022-07-25T13:02:58;100395.72;;;28.61;41.68
48244;BME280;34053;51.088;6.572;2022-07-25T13:05:29;100394.50;;;28.47;42.13
48244;BME280;34053;51.088;6.572;2022-07-25T13:08:03;100388.44;;;28.53;41.62
48244;BME280;34053;51.088;6.572;2022-07-25T13:10:34;100390.13;;;28.54;41.25
48244;BME280;34053;51.088;6.572;2022-07-25T13:13:05;100395.34;;;28.64;41.32
48244;BME280;34053;51.088;6.572;2022-07-25T13:15:43;100390.13;;;28.54;41.20
48244;BME280;34053;51.088;6.572;2022-07-25T13:18:13;100385.75;;;28.69;41.07
48244;BME280;34053;51.088;6.572;2022-07-25T13:20:44;100381.53;;;28.67;40.15
48244;BME280;34053;51.088;6.572;2022-07-25T13:23:14;100381.03;;;28.63;40.24
48244;BME280;34053;51.088;6.572;2022-07-25T13:25:45;100383.53;;;28.56;39.85
48244;BME280;34053;51.088;6.572;2022-07-25T13:28:18;100385.91;;;28.43;39.68
48244;BME280;34053;51.088;6.572;2022-07-25T13:30:49;100374.44;;;28.41;40.02
48244;BME280;34053;51.088;6.572;2022-07-25T13:33:20;100387.22;;;28.31;39.55
48244;BME280;34053;51.088;6.572;2022-07-25T13:35:51;100385.72;;;28.28;40.06